Time;durP1;ratioP1;P1;durP2;ratioP2;P2;SDS_P1;SDS_P2;PMS_P1;PMS_P2;Temp;Humidity;BMP_temperature;BMP_pressure;BME280_temperature;BME280_humidity;BME280_pressure;Samples;Min_cycle;Max_cycle;Signal;HPM_P1;HPM_P2
2021/08/24 00:00:20;;;;;;;8.03;7.33;;;;;;;13.47;85.48;96294.63;5030825;28;20273;-78
2021/08/24 00:02:46;;;;;;;9.13;7.07;;;;;;;13.41;85.75;96289.97;5031139;28;20178;-77
2021/08/24 00:05:16;;;;;;;8.27;6.53;;;;;;;13.41;85.41;96284.75;5033144;28;20650;-78
2021/08/24 00:07:41;;;;;;;7.40;6.50;;;;;;;13.37;85.55;96291.25;5034626;28;20600;-78
2021/08/24 00:10:08;;;;;;;7.47;6.77;;;;;;;13.32;85.64;96289.88;5034446;28;20187;-78
2021/08/24 00:12:34;;;;;;;7.80;6.77;;;;;;;13.31;85.77;96292.66;5034950;28;20182;-78
2021/08/24 00:14:59;;;;;;;7.70;7.00;;;;;;;13.32;85.89;96297.72;5034443;28;20178;-78
2021/08/24 00:17:24;;;;;;;7.97;7.27;;;;;;;13.27;85.75;96286.09;5034152;28;20198;-78
2021/08/24 00:19:49;;;;;;;7.07;6.37;;;;;;;13.35;85.29;96293.19;5035311;28;20182;-77
2021/08/24 00:22:15;;;;;;;8.57;7.20;;;;;;;13.35;84.89;96291.41;5034136;28;20674;-77
2021/08/24 00:24:40;;;;;;;8.10;7.03;;;;;;;13.35;85.05;96288.78;5034768;28;20604;-77
2021/08/24 00:27:05;;;;;;;8.27;7.37;;;;;;;13.34;85.45;96284.56;5033640;28;20194;-77
2021/08/24 00:29:31;;;;;;;8.83;7.87;;;;;;;13.36;85.36;96287.81;5034801;28;20174;-77
2021/08/24 00:31:56;;;;;;;8.23;7.40;;;;;;;13.35;86.01;96287.97;5034165;28;20174;-77
2021/08/24 00:34:21;;;;;;;8.87;7.07;;;;;;;13.36;85.69;96281.78;5034713;28;20187;-78
2021/08/24 00:36:47;;;;;;;8.23;7.10;;;;;;;13.42;85.52;96281.19;5034530;28;20703;-77
2021/08/24 00:39:12;;;;;;;10.70;7.43;;;;;;;13.40;85.32;96277.91;5035259;28;20213;-78
2021/08/24 00:41:38;;;;;;;8.70;7.47;;;;;;;13.41;85.22;96282.16;5033491;28;20218;-77
2021/08/24 00:44:07;;;;;;;9.07;7.80;;;;;;;13.38;85.50;96285.88;5054488;28;20178;-77
2021/08/24 00:46:37;;;;;;;8.20;7.40;;;;;;;13.41;85.49;96287.38;5054169;28;20181;-77
2021/08/24 00:49:26;;;;;;;8.80;7.90;;;;;;;13.38;85.83;96280.66;5053089;28;20185;-78
2021/08/24 00:51:58;;;;;;;13.37;7.97;;;;;;;13.38;85.93;96285.06;5047069;28;20197;-77
2021/08/24 00:54:25;;;;;;;10.27;8.17;;;;;;;13.35;86.13;96285.38;5053141;28;20178;-77
2021/08/24 00:56:56;;;;;;;8.67;7.23;;;;;;;13.37;85.97;96286.03;5035998;28;20191;-77
2021/08/24 00:59:21;;;;;;;8.93;8.00;;;;;;;13.33;86.03;96288.09;5033262;28;20247;-78
2021/08/24 01:01:47;;;;;;;8.00;7.20;;;;;;;13.36;86.00;96284.41;5032152;28;20202;-77
2021/08/24 01:04:13;;;;;;;8.40;6.47;;;;;;;13.40;85.71;96281.34;5033295;28;20243;-78
2021/08/24 01:06:49;;;;;;;9.03;6.93;;;;;;;13.31;86.10;96284.81;5032738;28;20254;-77
2021/08/24 01:09:37;;;;;;;8.93;8.03;;;;;;;13.32;85.86;96281.25;5033254;28;20170;-78
2021/08/24 01:12:16;;;;;;;9.47;7.53;;;;;;;13.29;86.17;96282.38;5030312;28;20194;-78
2021/08/24 01:14:56;;;;;;;8.13;7.33;;;;;;;13.33;85.97;96288.09;5034438;28;20273;-78
2021/08/24 01:17:27;;;;;;;8.00;7.20;;;;;;;13.30;86.13;96291.00;5031773;28;20218;-78
2021/08/24 01:20:25;;;;;;;11.30;8.03;;;;;;;13.23;86.53;96284.72;5033143;28;20772;-78
2021/08/24 01:23:30;;;;;;;8.83;7.67;;;;;;;13.21;86.38;96282.28;5033481;28;20179;-77
2021/08/24 01:26:25;;;;;;;8.77;7.97;;;;;;;13.11;86.70;96281.47;5034354;28;20189;-78
2021/08/24 01:29:09;;;;;;;8.87;7.97;;;;;;;13.08;86.71;96280.97;5033156;28;20194;-78
2021/08/24 01:31:57;;;;;;;9.20;8.13;;;;;;;12.97;87.39;96284.56;5033431;28;20179;-77
2021/08/24 01:34:35;;;;;;;11.17;8.67;;;;;;;12.91;87.34;96282.53;5036929;28;20213;-78
2021/08/24 01:37:11;;;;;;;9.23;8.33;;;;;;;12.89;87.46;96281.84;5034038;28;20202;-78
2021/08/24 01:39:42;;;;;;;9.57;7.97;;;;;;;12.83;87.52;96282.44;5033415;28;20190;-76
2021/08/24 01:42:16;;;;;;;10.50;8.30;;;;;;;12.75;87.79;96283.97;5033604;28;20182;-78
2021/08/24 01:44:52;;;;;;;8.70;7.57;;;;;;;12.69;88.17;96287.13;5034362;28;20182;-78
2021/08/24 01:47:46;;;;;;;8.53;7.63;;;;;;;12.73;87.63;96285.09;5033933;28;20244;-78
2021/08/24 01:50:15;;;;;;;9.27;8.07;;;;;;;12.68;87.44;96282.06;5032374;28;20218;-78
2021/08/24 01:52:51;;;;;;;9.50;8.53;;;;;;;12.58;87.92;96278.69;5032777;28;20204;-78
2021/08/24 01:55:30;;;;;;;11.00;7.73;;;;;;;12.50;87.97;96279.38;5033452;28;20243;-77
2021/08/24 01:57:59;;;;;;;8.73;7.87;;;;;;;12.47;87.93;96277.88;5040379;28;20198;-76
2021/08/24 02:00:25;;;;;;;9.87;7.60;;;;;;;12.43;88.26;96279.13;5058301;28;20246;-76
2021/08/24 02:02:56;;;;;;;7.70;6.90;;;;;;;12.39;88.08;96287.38;5057131;28;20171;-76
2021/08/24 02:05:32;;;;;;;8.37;7.03;;;;;;;12.39;88.06;96288.19;5057518;28;20162;-76
2021/08/24 02:08:01;;;;;;;8.83;7.57;;;;;;;12.39;88.05;96284.78;5056090;28;20183;-76
2021/08/24 02:10:26;;;;;;;7.93;7.20;;;;;;;12.37;87.73;96289.31;5035107;28;20284;-77
2021/08/24 02:12:53;;;;;;;8.57;6.57;;;;;;;12.33;87.39;96288.75;5031753;28;20702;-77
2021/08/24 02:15:23;;;;;;;11.30;7.77;;;;;;;12.21;87.86;96289.06;5032056;28;20179;-77
2021/08/24 02:17:48;;;;;;;8.87;6.53;;;;;;;12.16;87.87;96292.88;5032304;28;20696;-76
2021/08/24 02:20:18;;;;;;;7.70;6.90;;;;;;;12.17;87.60;96286.72;5032034;28;20202;-77
2021/08/24 02:22:46;;;;;;;8.23;6.50;;;;;;;12.17;86.87;96280.69;5031232;28;20257;-78
2021/08/24 02:25:18;;;;;;;7.40;5.83;;;;;;;12.11;87.13;96284.69;5031802;28;20213;-77
2021/08/24 02:27:48;;;;;;;8.03;6.60;;;;;;;12.04;87.20;96288.78;5031820;28;20194;-78
2021/08/24 02:30:13;;;;;;;9.13;6.13;;;;;;;11.98;87.18;96281.53;5031884;28;20183;-78
2021/08/24 02:32:44;;;;;;;8.20;6.67;;;;;;;11.97;87.43;96284.28;5047459;28;20197;-77
2021/08/24 02:35:20;;;;;;;8.00;6.53;;;;;;;11.97;87.43;96276.47;5032125;28;20612;-77
2021/08/24 02:37:50;;;;;;;9.60;6.50;;;;;;;11.94;87.70;96279.34;5032605;28;20198;-77
2021/08/24 02:40:28;;;;;;;8.47;6.50;;;;;;;11.93;87.55;96273.31;5031332;28;20573;-77
2021/08/24 02:43:11;;;;;;;7.33;6.30;;;;;;;11.94;87.46;96279.34;5030795;28;20662;-77
2021/08/24 02:45:53;;;;;;;9.47;7.00;;;;;;;11.90;87.58;96276.19;5031611;28;20654;-76
2021/08/24 02:48:18;;;;;;;8.67;6.90;;;;;;;11.83;87.83;96269.88;5031282;28;20579;-78
2021/08/24 02:50:44;;;;;;;6.80;5.97;;;;;;;11.83;87.74;96265.50;5031216;28;20167;-78
2021/08/24 02:53:10;;;;;;;7.93;6.30;;;;;;;11.81;87.68;96266.59;5031829;28;20190;-77
2021/08/24 02:55:35;;;;;;;10.43;6.33;;;;;;;11.80;87.72;96268.38;5031177;28;20189;-78
2021/08/24 02:58:00;;;;;;;7.77;6.10;;;;;;;11.81;87.34;96261.41;5032255;28;20597;-77
2021/08/24 03:00:26;;;;;;;7.33;6.23;;;;;;;11.70;87.38;96261.50;5032402;28;20190;-77
2021/08/24 03:02:51;;;;;;;7.33;5.63;;;;;;;11.67;87.10;96248.78;5031715;28;20249;-77
2021/08/24 03:05:16;;;;;;;6.93;5.50;;;;;;;11.76;86.70;96258.38;5032521;28;20257;-77
2021/08/24 03:07:42;;;;;;;7.23;6.00;;;;;;;11.64;86.96;96255.88;5030899;28;20194;-78
2021/08/24 03:10:11;;;;;;;8.17;6.00;;;;;;;11.60;87.21;96258.91;5032022;28;20178;-76
2021/08/24 03:12:50;;;;;;;6.00;5.40;;;;;;;11.61;86.60;96255.34;5030384;28;20166;-77
2021/08/24 03:15:29;;;;;;;6.73;5.60;;;;;;;11.55;87.11;96258.50;5031175;28;20583;-78
2021/08/24 03:17:58;;;;;;;6.67;5.10;;;;;;;11.54;87.00;96257.66;5030899;28;20196;-77
2021/08/24 03:20:27;;;;;;;6.87;5.70;;;;;;;11.48;87.01;96254.78;5030949;28;20674;-78
2021/08/24 03:22:53;;;;;;;7.00;6.23;;;;;;;11.47;86.94;96250.53;5031733;28;20181;-78
2021/08/24 03:25:18;;;;;;;6.77;5.10;;;;;;;11.54;86.54;96262.06;5032194;28;20178;-77
2021/08/24 03:27:46;;;;;;;6.93;5.80;;;;;;;11.53;86.11;96247.41;5031981;28;20248;-78
2021/08/24 03:30:14;;;;;;;6.77;5.63;;;;;;;11.51;85.99;96244.94;5030534;28;20174;-78
2021/08/24 03:32:40;;;;;;;7.23;5.03;;;;;;;11.43;85.70;96246.59;5029980;28;20177;-78
2021/08/24 03:35:06;;;;;;;6.83;5.13;;;;;;;11.40;85.37;96250.28;5030488;28;20193;-77
2021/08/24 03:37:31;;;;;;;6.43;4.70;;;;;;;11.36;85.71;96261.91;5030418;28;20198;-77
2021/08/24 03:39:56;;;;;;;5.93;4.77;;;;;;;11.31;85.55;96261.50;5031532;28;20189;-78
2021/08/24 03:42:22;;;;;;;8.03;4.17;;;;;;;11.35;84.63;96265.47;5034566;28;20186;-78
2021/08/24 03:44:47;;;;;;;6.57;4.43;;;;;;;11.34;84.59;96262.03;5051049;28;20233;-77
2021/08/24 03:47:14;;;;;;;5.43;4.73;;;;;;;11.37;84.16;96266.13;5051032;28;20202;-77
2021/08/24 03:49:39;;;;;;;6.90;3.97;;;;;;;11.36;84.41;96269.69;5034816;28;20535;-77
2021/08/24 03:52:05;;;;;;;4.23;3.83;;;;;;;11.25;84.29;96265.44;5033945;28;20183;-77
2021/08/24 03:54:30;;;;;;;6.63;4.50;;;;;;;11.25;84.65;96264.63;5035916;28;20269;-78
2021/08/24 03:56:56;;;;;;;6.70;4.63;;;;;;;11.25;84.36;96269.81;5034165;28;20210;-78
2021/08/24 03:59:21;;;;;;;5.30;4.30;;;;;;;11.15;84.44;96269.81;5035712;28;20186;-77
2021/08/24 04:01:46;;;;;;;5.80;4.30;;;;;;;11.12;84.74;96270.06;5034858;28;20194;-79
2021/08/24 04:04:11;;;;;;;6.47;5.30;;;;;;;11.09;84.44;96272.94;5035367;28;20198;-77
2021/08/24 04:06:37;;;;;;;5.73;4.30;;;;;;;11.05;84.96;96274.97;5033895;28;20182;-76
2021/08/24 04:09:02;;;;;;;6.67;5.20;;;;;;;11.03;85.11;96276.88;5033934;28;20217;-77
2021/08/24 04:11:27;;;;;;;8.10;4.87;;;;;;;11.01;85.37;96283.97;5049158;28;20278;-77
2021/08/24 04:13:53;;;;;;;6.40;5.03;;;;;;;10.97;84.96;96282.63;5062654;28;20229;-76
2021/08/24 04:16:18;;;;;;;6.27;4.23;;;;;;;10.93;84.86;96286.41;5052657;28;20218;-77
2021/08/24 04:18:43;;;;;;;5.20;4.40;;;;;;;10.90;84.52;96291.88;5053809;28;20280;-77
2021/08/24 04:21:15;;;;;;;7.43;4.60;;;;;;;10.88;84.66;96288.59;5052650;28;20213;-77
2021/08/24 04:23:41;;;;;;;7.13;5.40;;;;;;;10.85;84.79;96286.25;5035079;28;20254;-77
2021/08/24 04:26:07;;;;;;;5.27;4.57;;;;;;;10.84;84.62;96289.81;5054072;28;20174;-78
2021/08/24 04:28:33;;;;;;;6.20;5.23;;;;;;;10.81;84.85;96291.84;5052747;28;20606;-77
2021/08/24 04:30:58;;;;;;;6.13;5.00;;;;;;;10.80;85.07;96285.84;5052958;28;20192;-77
2021/08/24 04:33:24;;;;;;;6.53;5.20;;;;;;;10.80;84.96;96285.00;5053537;28;20205;-77
2021/08/24 04:35:51;;;;;;;7.40;5.17;;;;;;;10.85;84.86;96283.66;5052666;28;20181;-77
2021/08/24 04:38:16;;;;;;;5.90;4.70;;;;;;;10.84;84.69;96286.38;5053700;28;20252;-77
2021/08/24 04:40:41;;;;;;;9.87;5.10;;;;;;;10.91;85.33;96282.31;5053816;28;20205;-77
2021/08/24 04:43:07;;;;;;;7.30;4.80;;;;;;;10.92;84.95;96289.16;5053192;28;20190;-77
2021/08/24 04:45:32;;;;;;;6.67;5.37;;;;;;;10.97;85.08;96290.41;5054168;28;20182;-76
2021/08/24 04:47:57;;;;;;;7.57;5.37;;;;;;;11.01;84.94;96283.16;5052790;28;20213;-77
2021/08/24 04:50:23;;;;;;;5.73;5.10;;;;;;;11.03;84.72;96291.63;5053692;28;20314;-76
2021/08/24 04:52:48;;;;;;;8.17;5.53;;;;;;;11.10;84.05;96289.34;5051464;28;20174;-77
2021/08/24 04:55:13;;;;;;;8.50;5.60;;;;;;;11.15;84.09;96294.97;5053572;28;20213;-78
2021/08/24 04:57:39;;;;;;;6.07;5.17;;;;;;;11.24;83.82;96304.56;5059787;22;20296;-76
2021/08/24 05:00:05;;;;;;;7.53;5.67;;;;;;;11.86;82.76;96300.84;5033164;28;20210;-76
2021/08/24 05:02:31;;;;;;;7.73;4.70;;;;;;;12.54;77.93;96306.78;5031596;28;20666;-76
2021/08/24 05:04:56;;;;;;;5.47;4.77;;;;;;;13.50;72.62;96312.56;5033345;28;20166;-76
2021/08/24 05:07:21;;;;;;;5.33;4.83;;;;;;;13.74;72.74;96317.25;5032978;28;20198;-77
2021/08/24 05:09:46;;;;;;;5.43;4.27;;;;;;;13.57;71.71;96317.06;5032331;28;20178;-78
2021/08/24 05:12:12;;;;;;;6.37;4.73;;;;;;;13.35;72.85;96311.44;5031348;28;20654;-77
2021/08/24 05:14:37;;;;;;;6.13;4.47;;;;;;;13.01;75.06;96315.41;5031922;28;20280;-77
2021/08/24 05:17:02;;;;;;;6.93;5.10;;;;;;;12.86;76.46;96311.63;5031869;28;20226;-77
2021/08/24 05:19:28;;;;;;;7.10;5.17;;;;;;;12.63;77.46;96318.13;5031590;28;20182;-77
2021/08/24 05:21:54;;;;;;;8.00;5.67;;;;;;;12.52;78.69;96319.13;5032151;28;20202;-78
2021/08/24 05:24:19;;;;;;;9.17;5.73;;;;;;;12.47;79.04;96321.34;5048195;28;20610;-77
2021/08/24 05:26:44;;;;;;;7.03;5.43;;;;;;;12.48;78.80;96318.59;5014989;28;20280;-77
2021/08/24 05:29:12;;;;;;;6.90;5.03;;;;;;;12.51;78.76;96314.06;5032891;28;20189;-76
2021/08/24 05:31:37;;;;;;;5.83;5.03;;;;;;;12.45;79.01;96318.03;5030734;28;20210;-76
2021/08/24 05:34:04;;;;;;;9.00;5.57;;;;;;;12.41;79.12;96308.88;5031566;28;20225;-76
2021/08/24 05:36:30;;;;;;;7.03;6.00;;;;;;;12.43;79.54;96309.56;5031027;28;20276;-77
2021/08/24 05:38:55;;;;;;;5.87;5.23;;;;;;;12.59;78.03;96309.78;5014590;28;20237;-76
2021/08/24 05:41:20;;;;;;;6.27;5.40;;;;;;;12.47;78.56;96313.53;5013780;28;20207;-73
2021/08/24 05:43:46;;;;;;;5.30;4.80;;;;;;;12.48;77.63;96313.41;5030631;28;20253;-76
2021/08/24 05:46:13;;;;;;;5.20;4.70;;;;;;;12.55;77.75;96313.66;5014284;28;20662;-76
2021/08/24 05:48:39;;;;;;;5.33;4.80;;;;;;;12.41;78.29;96311.50;5030683;28;20506;-75
2021/08/24 05:51:12;;;;;;;8.53;4.53;;;;;;;12.47;77.62;96316.97;5031813;28;20166;-76
2021/08/24 05:53:38;;;;;;;7.33;4.77;;;;;;;12.66;77.86;96320.47;5030324;28;20221;-76
2021/08/24 05:56:08;;;;;;;7.13;4.70;;;;;;;12.66;78.29;96312.66;5026818;28;20689;-72
2021/08/24 05:58:34;;;;;;;6.57;4.73;;;;;;;12.63;77.68;96320.75;5027364;28;20218;-74
2021/08/24 06:00:59;;;;;;;5.60;4.43;;;;;;;12.60;78.12;96315.81;5026706;28;20206;-73
2021/08/24 06:03:24;;;;;;;6.83;5.00;;;;;;;12.76;77.24;96316.06;5029998;28;20214;-74
2021/08/24 06:05:49;;;;;;;5.03;4.40;;;;;;;12.90;77.05;96322.63;5030184;28;20194;-74
2021/08/24 06:08:15;;;;;;;7.03;4.83;;;;;;;12.92;77.01;96320.69;5030598;28;20190;-73
2021/08/24 06:10:40;;;;;;;5.23;4.47;;;;;;;12.93;77.51;96317.09;5028715;28;20213;-76
2021/08/24 06:13:06;;;;;;;6.47;5.17;;;;;;;12.95;78.06;96321.19;5029974;28;20187;-76
2021/08/24 06:15:32;;;;;;;8.20;5.13;;;;;;;13.15;76.65;96316.72;5031121;28;20274;-77
2021/08/24 06:17:57;;;;;;;8.77;4.77;;;;;;;13.07;77.13;96319.22;5032306;28;20617;-76
2021/08/24 06:20:22;;;;;;;5.47;4.77;;;;;;;13.03;76.78;96313.47;5047875;28;20625;-76
2021/08/24 06:22:48;;;;;;;5.67;5.03;;;;;;;13.05;76.55;96311.53;5029896;28;20190;-77
2021/08/24 06:25:15;;;;;;;5.97;4.90;;;;;;;12.99;77.94;96324.34;5031058;28;20217;-75
2021/08/24 06:27:40;;;;;;;5.50;4.80;;;;;;;12.74;77.29;96318.81;5032052;28;20569;-76
2021/08/24 06:30:06;;;;;;;6.27;4.80;;;;;;;12.91;77.96;96319.84;5031880;28;20269;-76
2021/08/24 06:32:44;;;;;;;6.80;5.10;;;;;;;12.84;78.45;96312.75;5046961;28;20718;-77
2021/08/24 06:35:10;;;;;;;7.57;5.10;;;;;;;12.93;77.87;96314.50;5059779;28;20177;-79
2021/08/24 06:37:35;;;;;;;6.03;4.90;;;;;;;12.85;77.38;96311.78;5033934;28;20204;-79
2021/08/24 06:40:01;;;;;;;7.00;4.70;;;;;;;12.87;78.15;96317.66;5051006;28;20523;-80
2021/08/24 06:42:26;;;;;;;6.47;5.30;;;;;;;12.96;77.78;96322.03;5035244;28;20192;-80
2021/08/24 06:44:52;;;;;;;5.67;4.60;;;;;;;12.86;78.11;96324.66;5030944;28;20186;-77
2021/08/24 06:47:17;;;;;;;5.63;4.83;;;;;;;12.99;77.78;96319.16;5032031;28;20277;-79
2021/08/24 06:49:43;;;;;;;5.30;4.53;;;;;;;13.05;78.39;96329.78;5035756;28;20245;-79
2021/08/24 06:52:08;;;;;;;6.80;4.83;;;;;;;13.31;76.96;96327.38;5033373;28;20554;-78
2021/08/24 06:54:33;;;;;;;6.83;4.87;;;;;;;13.21;76.82;96331.81;5050715;28;20174;-78
2021/08/24 06:57:02;;;;;;;6.73;5.23;;;;;;;13.33;75.56;96335.06;5050229;28;20254;-78
2021/08/24 06:59:27;;;;;;;5.50;4.30;;;;;;;13.18;77.24;96326.88;5043631;28;20190;-78
2021/08/24 07:01:52;;;;;;;6.07;4.70;;;;;;;13.59;76.20;96329.97;5045916;28;20205;-79
2021/08/24 07:04:18;;;;;;;7.20;4.60;;;;;;;13.71;76.01;96330.59;5013597;28;20241;-78
2021/08/24 07:06:50;;;;;;;6.60;4.43;;;;;;;13.62;75.25;96328.88;5033880;28;20642;-79
2021/08/24 07:09:15;;;;;;;6.70;5.00;;;;;;;13.64;75.23;96335.56;5034434;28;20185;-78
2021/08/24 07:11:40;;;;;;;7.43;5.07;;;;;;;13.44;76.48;96337.47;5032651;28;20185;-77
2021/08/24 07:14:06;;;;;;;5.03;4.53;;;;;;;13.35;75.99;96333.16;5032908;28;20530;-78
2021/08/24 07:16:32;;;;;;;5.03;4.53;;;;;;;13.27;76.48;96338.25;5032897;28;20681;-79
2021/08/24 07:18:58;;;;;;;6.73;4.40;;;;;;;13.31;76.41;96331.78;5049923;28;20292;-80
2021/08/24 07:21:24;;;;;;;6.33;4.50;;;;;;;13.24;75.25;96326.31;5033075;28;20253;-77
2021/08/24 07:23:49;;;;;;;6.03;4.37;;;;;;;13.42;75.59;96333.34;5033326;28;20177;-78
2021/08/24 07:26:16;;;;;;;4.37;3.80;;;;;;;13.54;75.53;96330.41;5049945;28;20204;-78
2021/08/24 07:28:42;;;;;;;6.20;4.60;;;;;;;13.54;74.66;96332.22;5051280;28;20561;-79
2021/08/24 07:31:07;;;;;;;5.37;4.83;;;;;;;13.42;76.50;96328.97;5032998;28;20181;-77
2021/08/24 07:33:32;;;;;;;6.60;4.40;;;;;;;13.78;74.93;96327.25;5066158;28;20182;-78
2021/08/24 07:35:58;;;;;;;6.07;4.13;;;;;;;13.76;73.34;96326.56;5034919;28;20177;-78
2021/08/24 07:38:24;;;;;;;4.90;4.50;;;;;;;13.37;74.49;96325.16;5044555;28;20197;-78
2021/08/24 07:40:49;;;;;;;6.33;4.13;;;;;;;13.14;74.30;96324.69;5035574;28;20667;-78
2021/08/24 07:43:15;;;;;;;8.70;4.37;;;;;;;13.16;74.63;96327.97;5029505;28;20642;-78
2021/08/24 07:45:41;;;;;;;5.20;3.90;;;;;;;13.16;75.18;96339.22;5046434;28;20187;-77
2021/08/24 07:48:06;;;;;;;7.97;3.77;;;;;;;13.07;74.88;96327.03;5048208;28;20202;-77
2021/08/24 07:50:32;;;;;;;5.43;4.00;;;;;;;13.20;75.55;96331.97;5047247;28;20190;-79
2021/08/24 07:52:57;;;;;;;4.33;3.80;;;;;;;13.29;74.95;96334.53;5045927;28;20170;-77
2021/08/24 07:55:22;;;;;;;5.43;4.07;;;;;;;13.37;74.90;96330.38;5030375;28;20201;-77
2021/08/24 07:57:48;;;;;;;6.03;3.83;;;;;;;13.52;75.00;96341.97;5047423;28;20207;-79
2021/08/24 08:00:13;;;;;;;5.37;3.80;;;;;;;13.38;73.69;96337.25;5030599;28;20183;-77
2021/08/24 08:02:39;;;;;;;7.83;4.63;;;;;;;13.64;73.47;96335.56;5047325;28;20187;-77
2021/08/24 08:05:05;;;;;;;4.67;3.43;;;;;;;13.81;72.94;96334.78;5031121;28;20182;-78
2021/08/24 08:07:30;;;;;;;6.43;3.47;;;;;;;13.81;71.28;96340.00;5032489;28;20210;-77
2021/08/24 08:09:55;;;;;;;6.27;3.70;;;;;;;14.13;70.45;96343.84;5046939;28;20194;-77
2021/08/24 08:12:20;;;;;;;6.17;3.80;;;;;;;13.97;71.03;96348.97;5030758;28;20658;-76
2021/08/24 08:14:47;;;;;;;4.67;3.70;;;;;;;14.06;71.10;96343.66;5031836;28;20261;-78
2021/08/24 08:17:12;;;;;;;4.83;3.90;;;;;;;13.72;71.85;96346.09;5047640;28;20233;-79
2021/08/24 08:19:38;;;;;;;4.50;3.70;;;;;;;13.71;71.92;96348.88;5030224;28;20253;-79
2021/08/24 08:22:05;;;;;;;4.80;3.80;;;;;;;13.98;71.44;96340.97;5045979;28;20195;-79
2021/08/24 08:24:31;;;;;;;4.43;3.83;;;;;;;14.21;69.91;96346.53;5029614;28;20183;-80
2021/08/24 08:26:56;;;;;;;5.63;3.70;;;;;;;14.02;70.32;96341.47;5032121;28;20284;-79
2021/08/24 08:29:21;;;;;;;5.07;3.77;;;;;;;14.02;70.42;96346.72;5033102;28;20555;-79
2021/08/24 08:31:48;;;;;;;5.33;3.90;;;;;;;14.38;69.45;96342.28;5032586;28;20198;-78
2021/08/24 08:34:14;;;;;;;3.73;3.43;;;;;;;14.52;70.50;96346.19;5017049;28;20184;-76
2021/08/24 08:36:39;;;;;;;4.43;3.80;;;;;;;14.81;69.07;96344.06;5033144;28;20220;-78
2021/08/24 08:39:05;;;;;;;4.03;3.10;;;;;;;14.46;69.32;96355.44;5017303;28;20179;-77
2021/08/24 08:41:42;;;;;;;6.43;3.33;;;;;;;14.47;69.52;96356.25;5032490;28;20607;-77
2021/08/24 08:44:20;;;;;;;4.07;3.60;;;;;;;14.76;69.14;96341.13;5016231;28;20182;-78
2021/08/24 08:46:54;;;;;;;5.63;3.20;;;;;;;14.76;68.89;96345.53;5034204;28;20605;-77
2021/08/24 08:49:38;;;;;;;6.47;3.70;;;;;;;14.73;68.84;96351.88;5032173;28;20170;-78
2021/08/24 08:52:04;;;;;;;4.63;3.50;;;;;;;15.16;67.56;96337.06;5014050;28;20197;-80
2021/08/24 08:54:53;;;;;;;5.23;3.50;;;;;;;15.10;67.50;96343.75;5014357;28;20647;-76
2021/08/24 08:57:21;;;;;;;8.30;3.43;;;;;;;15.49;67.15;96338.03;5014111;28;20683;-78
2021/08/24 08:59:52;;;;;;;5.17;3.60;;;;;;;15.38;64.80;96341.75;5012983;28;20179;-78
2021/08/24 09:02:22;;;;;;;3.90;3.00;;;;;;;15.35;66.00;96342.06;5012081;28;20720;-80
2021/08/24 09:04:48;;;;;;;4.47;3.30;;;;;;;14.93;65.43;96332.41;5031540;28;20210;-78
2021/08/24 09:07:26;;;;;;;6.53;3.60;;;;;;;14.99;66.63;96326.53;5031268;28;20222;-78
2021/08/24 09:09:52;;;;;;;4.77;3.37;;;;;;;15.36;65.04;96333.22;5031331;28;20218;-78
2021/08/24 09:12:18;;;;;;;4.67;3.83;;;;;;;14.91;65.36;96331.72;5047370;28;20174;-78
2021/08/24 09:14:49;;;;;;;4.33;3.30;;;;;;;15.28;66.10;96330.56;5048138;28;20183;-78
2021/08/24 09:17:37;;;;;;;3.90;2.80;;;;;;;15.22;65.05;96324.19;5045329;28;20186;-79
2021/08/24 09:20:21;;;;;;;4.80;2.87;;;;;;;15.34;65.70;96316.88;5046548;28;20182;-79
2021/08/24 09:22:47;;;;;;;2.90;2.60;;;;;;;15.72;62.83;96318.16;5030876;28;20542;-79
2021/08/24 09:25:16;;;;;;;2.90;2.50;;;;;;;15.36;63.67;96317.53;5031105;28;20182;-78
2021/08/24 09:27:53;;;;;;;4.07;2.60;;;;;;;15.21;63.27;96314.72;5032266;28;20202;-80
2021/08/24 09:30:19;;;;;;;3.58;2.72;;;;;;;15.33;63.47;96309.19;5048142;28;20284;-78
2021/08/24 09:32:44;;;;;;;4.57;3.10;;;;;;;15.12;63.77;96315.66;5030210;28;20206;-78
2021/08/24 09:35:27;;;;;;;3.93;3.07;;;;;;;15.46;62.65;96320.84;5047594;28;20190;-79
2021/08/24 09:37:53;;;;;;;5.80;3.27;;;;;;;16.09;61.85;96320.34;5027837;28;20256;-78
2021/08/24 09:40:35;;;;;;;3.17;2.53;;;;;;;16.08;61.73;96317.91;5030645;28;20631;-79
2021/08/24 09:43:18;;;;;;;5.28;3.20;;;;;;;16.41;61.87;96323.94;5029282;28;20186;-79
2021/08/24 09:45:44;;;;;;;5.10;3.40;;;;;;;16.38;60.10;96332.13;5030163;28;20236;-78
2021/08/24 09:48:10;;;;;;;4.53;3.40;;;;;;;16.81;60.69;96322.28;5047234;28;20199;-79
2021/08/24 09:50:37;;;;;;;3.15;2.78;;;;;;;16.88;59.47;96331.13;5046877;28;20693;-79
2021/08/24 09:53:03;;;;;;;6.47;3.42;;;;;;;16.36;60.95;96331.50;5029752;28;20183;-78
2021/08/24 09:55:30;;;;;;;4.78;3.35;;;;;;;16.45;62.14;96334.94;5022429;28;20172;-79
2021/08/24 09:58:04;;;;;;;3.90;3.22;;;;;;;16.40;62.05;96333.59;5030403;28;20716;-77
2021/08/24 10:00:35;;;;;;;5.68;3.72;;;;;;;16.25;62.39;96330.00;5011831;28;20185;-79
2021/08/24 10:03:02;;;;;;;4.68;3.30;;;;;;;15.36;65.94;96341.06;5030863;28;20191;-79
2021/08/24 10:05:28;;;;;;;4.57;3.53;;;;;;;15.38;65.65;96328.69;5030467;28;20569;-79
2021/08/24 10:07:55;;;;;;;3.60;3.17;;;;;;;15.50;65.15;96332.63;5030315;28;20199;-80
2021/08/24 10:10:33;;;;;;;4.63;3.50;;;;;;;15.76;64.04;96329.13;5033156;28;20565;-78
2021/08/24 10:13:02;;;;;;;7.15;4.00;;;;;;;15.32;65.91;96329.28;5047949;28;20177;-79
2021/08/24 10:15:36;;;;;;;5.57;3.60;;;;;;;15.25;67.42;96338.75;5047990;28;20182;-78
2021/08/24 10:18:22;;;;;;;5.33;3.17;;;;;;;15.33;66.82;96330.94;5031574;28;20315;-79
2021/08/24 10:20:52;;;;;;;4.57;3.10;;;;;;;15.50;67.33;96334.44;5031444;28;20648;-80
2021/08/24 10:23:24;;;;;;;5.75;3.13;;;;;;;15.34;67.47;96340.41;5032637;28;20175;-79
2021/08/24 10:25:52;;;;;;;4.38;3.42;;;;;;;15.17;67.13;96336.91;5031615;28;20240;-78
2021/08/24 10:28:21;;;;;;;4.32;3.45;;;;;;;15.80;65.96;96341.72;5047281;28;20281;-78
2021/08/24 10:30:55;;;;;;;4.82;3.42;;;;;;;15.25;66.45;96343.97;5030675;28;20178;-74
2021/08/24 10:33:38;;;;;;;4.88;3.60;;;;;;;15.23;67.03;96346.75;5029820;28;20185;-76
2021/08/24 10:36:20;;;;;;;5.70;3.88;;;;;;;14.98;68.47;96352.84;5049638;28;20174;-76
2021/08/24 10:39:25;;;;;;;4.53;3.43;;;;;;;14.79;68.68;96359.09;5031581;28;20194;-78
2021/08/24 10:42:09;;;;;;;5.53;3.83;;;;;;;15.49;66.62;96349.31;5030443;28;20206;-80
2021/08/24 10:44:59;;;;;;;5.23;3.60;;;;;;;15.52;65.79;96349.00;5028767;28;20236;-78
2021/08/24 10:47:41;;;;;;;3.70;3.40;;;;;;;15.57;66.10;96345.91;5048334;28;20341;-77
2021/08/24 10:50:33;;;;;;;3.50;3.20;;;;;;;15.77;65.46;96354.34;5031632;28;20183;-78
2021/08/24 10:53:04;;;;;;;5.90;3.60;;;;;;;15.90;64.91;96352.06;5047216;28;20166;-78
2021/08/24 10:55:36;;;;;;;4.00;3.67;;;;;;;15.86;64.97;96351.56;5047980;28;20179;-78
2021/08/24 10:58:22;;;;;;;5.90;4.25;;;;;;;15.73;64.57;96353.03;5047566;28;20202;-79
2021/08/24 11:01:00;;;;;;;4.30;3.90;;;;;;;15.85;64.95;96346.50;5047968;28;20262;-78
2021/08/24 11:03:25;;;;;;;5.63;3.70;;;;;;;15.99;64.94;96345.03;5031214;28;20186;-78
2021/08/24 11:06:21;;;;;;;7.23;4.37;;;;;;;15.68;66.79;96345.63;5032695;28;20190;-79
2021/08/24 11:08:56;;;;;;;5.03;4.53;;;;;;;15.39;67.58;96356.47;5048320;28;20244;-77
2021/08/24 11:11:40;;;;;;;4.87;4.00;;;;;;;15.27;68.56;96344.63;5031383;28;20202;-77
2021/08/24 11:14:43;;;;;;;5.50;4.47;;;;;;;15.56;67.21;96349.50;5049015;28;20187;-76
2021/08/24 11:17:17;;;;;;;4.43;4.03;;;;;;;15.93;66.20;96354.38;5025725;28;20745;-78
2021/08/24 11:20:08;;;;;;;4.75;4.20;;;;;;;16.18;65.95;96352.63;5043626;28;20178;-76
2021/08/24 11:23:01;;;;;;;5.90;4.05;;;;;;;15.92;66.54;96349.31;5027167;28;20198;-78
2021/08/24 11:25:46;;;;;;;4.40;3.92;;;;;;;15.66;66.83;96357.25;5033691;28;20183;-78
2021/08/24 11:28:33;;;;;;;5.35;4.72;;;;;;;15.29;68.46;96353.19;5030480;28;20879;-77
2021/08/24 11:31:09;;;;;;;4.85;4.25;;;;;;;15.12;69.04;96352.28;5031777;28;20170;-77
2021/08/24 11:33:48;;;;;;;5.37;4.47;;;;;;;15.20;68.86;96349.69;5047474;28;20182;-77
2021/08/24 11:36:34;;;;;;;4.77;4.27;;;;;;;15.02;70.34;96351.56;5029529;28;20186;-79
2021/08/24 11:39:11;;;;;;;5.90;4.93;;;;;;;14.81;70.15;96357.16;5045926;28;20198;-78
2021/08/24 11:41:38;;;;;;;5.28;4.38;;;;;;;14.61;71.92;96363.56;5027887;28;20198;-79
2021/08/24 11:44:08;;;;;;;4.47;4.07;;;;;;;14.80;71.23;96367.78;5045680;28;20174;-77
2021/08/24 11:46:39;;;;;;;5.83;5.13;;;;;;;14.43;72.79;96368.78;5025578;28;20185;-78